PWSweather.com
Personal Weather Stations
Station Observations
CANDIOTINO
Barrio Candioti Norte, Santa FeAR 3000

Barrio Candioti NorteSanta FeAR 3000

Lat: -31.632778, Lon: -60.695556

Elevation: 69

Station Type: WH-1081

http://www.eltiempoensantafe.com.ar

High Low Average
Temperature 63.0°F17.2°C 41.4°F5.2°C 50.9°F10.5°C
Dew Point 47.8°F8.8°C 39.5°F4.2°C 42.6°F5.9°C
Winds 7.6 mph 12.2 kmh Calm Calm 2.0 mph SSE3.2 kmh SSE
Wind Gusts 12.1 mph19.5 kmh 0.7 mph1.1 kmh 5.0 mph8.0 kmh
Humidity 95% 47% 75%
Pressure 30.05 in1017.6 mb 29.92 in1013.2 mb -
Precipitation 0.00 in0.0 mm - -
Hour Temp Dew Point Humidity Winds Wind Gusts Pressure Precip Precip Rate Daily Precip Total
12:00 AM 45.9°F7.7°C 40.4°F4.7°C 81% 0.7 mph ESE1.1 kmh ESE 3.1 mph5.0 kmh 30.02 in1016.6 mb 0.00 in0.0 mm 0.00 in0.0 mm 0.00 in0.0 mm
12:15 AM 45.9°F7.7°C 40.7°F4.8°C 82% 2.2 mph ESE3.5 kmh ESE 3.8 mph6.1 kmh 30.01 in1016.3 mb 0.00 in0.0 mm 0.00 in0.0 mm 0.00 in0.0 mm
12:30 AM 45.9°F7.7°C 40.7°F4.8°C 82% 3.8 mph E6.1 kmh E 4.5 mph7.2 kmh 30.02 in1016.6 mb 0.00 in0.0 mm 0.00 in0.0 mm 0.00 in0.0 mm
12:45 AM 45.3°F7.4°C 40.5°F4.7°C 83% 3.1 mph ESE5.0 kmh ESE 5.4 mph8.7 kmh 30.00 in1015.9 mb 0.00 in0.0 mm 0.00 in0.0 mm 0.00 in0.0 mm
01:00 AM 45.0°F7.2°C 40.4°F4.7°C 84% 2.2 mph SE3.5 kmh SE 3.8 mph6.1 kmh 30.00 in1015.9 mb 0.00 in0.0 mm 0.00 in0.0 mm 0.00 in0.0 mm
01:15 AM 44.6°F7.0°C 40.1°F4.5°C 84% 1.6 mph SE2.6 kmh SE 4.5 mph7.2 kmh 30.00 in1015.9 mb 0.00 in0.0 mm 0.00 in0.0 mm 0.00 in0.0 mm
01:30 AM 44.4°F6.9°C 40.5°F4.7°C 86% 1.6 mph SE2.6 kmh SE 3.8 mph6.1 kmh 30.01 in1016.3 mb 0.00 in0.0 mm 0.00 in0.0 mm 0.00 in0.0 mm
01:45 AM 44.6°F7.0°C 40.7°F4.8°C 86% 3.1 mph ESE5.0 kmh ESE 5.4 mph8.7 kmh 29.99 in1015.6 mb 0.00 in0.0 mm 0.00 in0.0 mm 0.00 in0.0 mm
02:00 AM 44.8°F7.1°C 40.9°F4.9°C 86% 2.2 mph ESE3.5 kmh ESE 4.5 mph7.2 kmh 30.00 in1015.9 mb 0.00 in0.0 mm 0.00 in0.0 mm 0.00 in0.0 mm
02:15 AM 44.1°F6.7°C 40.4°F4.7°C 87% 1.6 mph SE2.6 kmh SE 4.5 mph7.2 kmh 29.99 in1015.6 mb 0.00 in0.0 mm 0.00 in0.0 mm 0.00 in0.0 mm
02:30 AM 43.7°F6.5°C 40.4°F4.7°C 88% 1.6 mph SE2.6 kmh SE 3.8 mph6.1 kmh 29.97 in1014.9 mb 0.00 in0.0 mm 0.00 in0.0 mm 0.00 in0.0 mm
02:45 AM 43.3°F6.3°C 40.0°F4.4°C 88% Calm Calm 3.8 mph6.1 kmh 29.98 in1015.2 mb 0.00 in0.0 mm 0.00 in0.0 mm 0.00 in0.0 mm
03:00 AM 42.6°F5.9°C 39.6°F4.2°C 89% Calm Calm 0.7 mph1.1 kmh 29.97 in1014.9 mb 0.00 in0.0 mm 0.00 in0.0 mm 0.00 in0.0 mm
03:15 AM 42.6°F5.9°C 39.9°F4.4°C 90% 1.6 mph SE2.6 kmh SE 2.2 mph3.5 kmh 29.97 in1014.9 mb 0.00 in0.0 mm 0.00 in0.0 mm 0.00 in0.0 mm
03:30 AM 43.0°F6.1°C 40.3°F4.6°C 90% 2.2 mph SE3.5 kmh SE 3.8 mph6.1 kmh 29.96 in1014.6 mb 0.00 in0.0 mm 0.00 in0.0 mm 0.00 in0.0 mm
03:45 AM 43.0°F6.1°C 40.3°F4.6°C 90% 0.7 mph E1.1 kmh E 3.8 mph6.1 kmh 29.95 in1014.2 mb 0.00 in0.0 mm 0.00 in0.0 mm 0.00 in0.0 mm
04:00 AM 42.8°F6.0°C 40.1°F4.5°C 90% 1.6 mph ESE2.6 kmh ESE 3.8 mph6.1 kmh 29.95 in1014.2 mb 0.00 in0.0 mm 0.00 in0.0 mm 0.00 in0.0 mm
04:15 AM 42.6°F5.9°C 40.2°F4.6°C 91% 1.6 mph SE2.6 kmh SE 3.8 mph6.1 kmh 29.94 in1013.9 mb 0.00 in0.0 mm 0.00 in0.0 mm 0.00 in0.0 mm
04:30 AM 42.3°F5.7°C 40.1°F4.5°C 92% 0.7 mph SE1.1 kmh SE 2.2 mph3.5 kmh 29.94 in1013.9 mb 0.00 in0.0 mm 0.00 in0.0 mm 0.00 in0.0 mm
04:45 AM 42.1°F5.6°C 39.9°F4.4°C 92% 1.6 mph SE2.6 kmh SE 2.2 mph3.5 kmh 29.94 in1013.9 mb 0.00 in0.0 mm 0.00 in0.0 mm 0.00 in0.0 mm
05:00 AM 42.3°F5.7°C 40.1°F4.5°C 92% 1.6 mph ESE2.6 kmh ESE 3.1 mph5.0 kmh 29.95 in1014.2 mb 0.00 in0.0 mm 0.00 in0.0 mm 0.00 in0.0 mm
05:15 AM 42.3°F5.7°C 40.4°F4.7°C 93% 2.2 mph SE3.5 kmh SE 4.5 mph7.2 kmh 29.95 in1014.2 mb 0.00 in0.0 mm 0.00 in0.0 mm 0.00 in0.0 mm
05:30 AM 42.1°F5.6°C 40.2°F4.6°C 93% 2.2 mph E3.5 kmh E 4.5 mph7.2 kmh 29.95 in1014.2 mb 0.00 in0.0 mm 0.00 in0.0 mm 0.00 in0.0 mm
05:45 AM 41.7°F5.4°C 39.8°F4.3°C 93% 0.7 mph E1.1 kmh E 3.1 mph5.0 kmh 29.95 in1014.2 mb 0.00 in0.0 mm 0.00 in0.0 mm 0.00 in0.0 mm
06:00 AM 41.9°F5.5°C 40.0°F4.4°C 93% 1.6 mph ESE2.6 kmh ESE 3.1 mph5.0 kmh 29.94 in1013.9 mb 0.00 in0.0 mm 0.00 in0.0 mm 0.00 in0.0 mm
06:15 AM 41.9°F5.5°C 40.0°F4.4°C 93% 1.6 mph SE2.6 kmh SE 3.1 mph5.0 kmh 29.95 in1014.2 mb 0.00 in0.0 mm 0.00 in0.0 mm 0.00 in0.0 mm
06:30 AM 41.7°F5.4°C 39.8°F4.3°C 93% Calm Calm 1.6 mph2.6 kmh 29.94 in1013.9 mb 0.00 in0.0 mm 0.00 in0.0 mm 0.00 in0.0 mm
06:45 AM 41.7°F5.4°C 39.8°F4.3°C 93% Calm Calm 2.2 mph3.5 kmh 29.96 in1014.6 mb 0.00 in0.0 mm 0.00 in0.0 mm 0.00 in0.0 mm
07:00 AM 41.4°F5.2°C 39.5°F4.2°C 93% Calm Calm 1.6 mph2.6 kmh 29.96 in1014.6 mb 0.00 in0.0 mm 0.00 in0.0 mm 0.00 in0.0 mm
07:15 AM 41.4°F5.2°C 39.8°F4.3°C 94% 2.2 mph SE3.5 kmh SE 3.1 mph5.0 kmh 29.97 in1014.9 mb 0.00 in0.0 mm 0.00 in0.0 mm 0.00 in0.0 mm
07:30 AM 42.1°F5.6°C 40.5°F4.7°C 94% 1.6 mph SE2.6 kmh SE 3.1 mph5.0 kmh 29.96 in1014.6 mb 0.00 in0.0 mm 0.00 in0.0 mm 0.00 in0.0 mm
07:45 AM 42.1°F5.6°C 40.5°F4.7°C 94% 0.7 mph SE1.1 kmh SE 3.8 mph6.1 kmh 29.96 in1014.6 mb 0.00 in0.0 mm 0.00 in0.0 mm 0.00 in0.0 mm
08:00 AM 42.1°F5.6°C 40.8°F4.9°C 95% 0.7 mph S1.1 kmh S 2.2 mph3.5 kmh 29.97 in1014.9 mb 0.00 in0.0 mm 0.00 in0.0 mm 0.00 in0.0 mm
08:15 AM 42.8°F6.0°C 41.2°F5.1°C 94% Calm Calm 2.2 mph3.5 kmh 29.98 in1015.2 mb 0.00 in0.0 mm 0.00 in0.0 mm 0.00 in0.0 mm
08:30 AM 42.6°F5.9°C 41.3°F5.2°C 95% 0.7 mph SSE1.1 kmh SSE 3.1 mph5.0 kmh 29.97 in1014.9 mb 0.00 in0.0 mm 0.00 in0.0 mm 0.00 in0.0 mm
08:45 AM 43.2°F6.2°C 41.6°F5.3°C 94% 0.7 mph S1.1 kmh S 3.1 mph5.0 kmh 29.99 in1015.6 mb 0.00 in0.0 mm 0.00 in0.0 mm 0.00 in0.0 mm
09:00 AM 43.7°F6.5°C 42.4°F5.8°C 95% 1.6 mph SSW2.6 kmh SSW 3.1 mph5.0 kmh 29.99 in1015.6 mb 0.00 in0.0 mm 0.00 in0.0 mm 0.00 in0.0 mm
09:15 AM 44.4°F6.9°C 43.1°F6.2°C 95% 0.7 mph S1.1 kmh S 4.5 mph7.2 kmh 29.99 in1015.6 mb 0.00 in0.0 mm 0.00 in0.0 mm 0.00 in0.0 mm
09:30 AM 45.0°F7.2°C 43.3°F6.3°C 94% 2.2 mph S3.5 kmh S 4.5 mph7.2 kmh 29.98 in1015.2 mb 0.00 in0.0 mm 0.00 in0.0 mm 0.00 in0.0 mm
09:45 AM 46.4°F8.0°C 44.5°F6.9°C 93% 2.2 mph SE3.5 kmh SE 4.5 mph7.2 kmh 29.99 in1015.6 mb 0.00 in0.0 mm 0.00 in0.0 mm 0.00 in0.0 mm
10:00 AM 49.3°F9.6°C 45.9°F7.7°C 88% 2.2 mph S3.5 kmh S 5.4 mph8.7 kmh 29.99 in1015.6 mb 0.00 in0.0 mm 0.00 in0.0 mm 0.00 in0.0 mm
10:15 AM 51.6°F10.9°C 46.6°F8.1°C 83% 2.2 mph S3.5 kmh S 4.5 mph7.2 kmh 29.99 in1015.6 mb 0.00 in0.0 mm 0.00 in0.0 mm 0.00 in0.0 mm
10:30 AM 53.2°F11.8°C 46.2°F7.9°C 77% 1.6 mph S2.6 kmh S 5.4 mph8.7 kmh 30.00 in1015.9 mb 0.00 in0.0 mm 0.00 in0.0 mm 0.00 in0.0 mm
10:45 AM 56.3°F13.5°C 47.8°F8.8°C 73% 2.2 mph SSW3.5 kmh SSW 4.5 mph7.2 kmh 29.99 in1015.6 mb 0.00 in0.0 mm 0.00 in0.0 mm 0.00 in0.0 mm
11:00 AM 56.1°F13.4°C 46.1°F7.8°C 69% 2.2 mph SW3.5 kmh SW 4.5 mph7.2 kmh 30.00 in1015.9 mb 0.00 in0.0 mm 0.00 in0.0 mm 0.00 in0.0 mm
11:15 AM 57.9°F14.4°C 47.0°F8.3°C 67% 3.1 mph S5.0 kmh S 8.3 mph13.4 kmh 30.00 in1015.9 mb 0.00 in0.0 mm 0.00 in0.0 mm 0.00 in0.0 mm
11:30 AM 56.1°F13.4°C 45.7°F7.6°C 68% 1.6 mph WSW2.6 kmh WSW 6.0 mph9.7 kmh 30.00 in1015.9 mb 0.00 in0.0 mm 0.00 in0.0 mm 0.00 in0.0 mm
11:45 AM 55.9°F13.3°C 44.8°F7.1°C 66% 3.1 mph WSW5.0 kmh WSW 7.6 mph12.2 kmh 30.00 in1015.9 mb 0.00 in0.0 mm 0.00 in0.0 mm 0.00 in0.0 mm
12:00 PM 56.7°F13.7°C 45.0°F7.2°C 65% 4.5 mph SSW7.2 kmh SSW 6.0 mph9.7 kmh 30.00 in1015.9 mb 0.00 in0.0 mm 0.00 in0.0 mm 0.00 in0.0 mm
12:15 PM 58.8°F14.9°C 46.7°F8.2°C 64% 3.8 mph SSE6.1 kmh SSE 6.0 mph9.7 kmh 29.99 in1015.6 mb 0.00 in0.0 mm 0.00 in0.0 mm 0.00 in0.0 mm
12:30 PM 57.7°F14.3°C 44.8°F7.1°C 62% 3.1 mph SSW5.0 kmh SSW 6.0 mph9.7 kmh 29.98 in1015.2 mb 0.00 in0.0 mm 0.00 in0.0 mm 0.00 in0.0 mm
12:45 PM 59.5°F15.3°C 44.8°F7.1°C 58% 1.6 mph S2.6 kmh S 7.6 mph12.2 kmh 29.97 in1014.9 mb 0.00 in0.0 mm 0.00 in0.0 mm 0.00 in0.0 mm
01:00 PM 58.5°F14.7°C 43.7°F6.5°C 58% 0.7 mph SSE1.1 kmh SSE 7.6 mph12.2 kmh 29.96 in1014.6 mb 0.00 in0.0 mm 0.00 in0.0 mm 0.00 in0.0 mm
01:15 PM 60.1°F15.6°C 44.8°F7.1°C 57% 3.1 mph S5.0 kmh S 8.3 mph13.4 kmh 29.96 in1014.6 mb 0.00 in0.0 mm 0.00 in0.0 mm 0.00 in0.0 mm
01:30 PM 59.7°F15.4°C 44.5°F6.9°C 57% 3.8 mph SSE6.1 kmh SSE 6.9 mph11.1 kmh 29.95 in1014.2 mb 0.00 in0.0 mm 0.00 in0.0 mm 0.00 in0.0 mm
01:45 PM 61.2°F16.2°C 45.4°F7.4°C 56% 5.4 mph S8.7 kmh S 6.0 mph9.7 kmh 29.95 in1014.2 mb 0.00 in0.0 mm 0.00 in0.0 mm 0.00 in0.0 mm
02:00 PM 61.3°F16.3°C 45.0°F7.2°C 55% 3.1 mph SSW5.0 kmh SSW 5.4 mph8.7 kmh 29.94 in1013.9 mb 0.00 in0.0 mm 0.00 in0.0 mm 0.00 in0.0 mm
02:15 PM 60.8°F16.0°C 44.1°F6.7°C 54% 5.4 mph SW8.7 kmh SW 6.9 mph11.1 kmh 29.94 in1013.9 mb 0.00 in0.0 mm 0.00 in0.0 mm 0.00 in0.0 mm
02:30 PM 62.1°F16.7°C 45.2°F7.3°C 54% 2.2 mph WSW3.5 kmh WSW 7.6 mph12.2 kmh 29.93 in1013.5 mb 0.00 in0.0 mm 0.00 in0.0 mm 0.00 in0.0 mm
02:45 PM 61.3°F16.3°C 44.1°F6.7°C 53% 3.1 mph WSW5.0 kmh WSW 6.0 mph9.7 kmh 29.93 in1013.5 mb 0.00 in0.0 mm 0.00 in0.0 mm 0.00 in0.0 mm
03:00 PM 61.0°F16.1°C 43.2°F6.2°C 52% 3.8 mph W6.1 kmh W 6.9 mph11.1 kmh 29.93 in1013.5 mb 0.00 in0.0 mm 0.00 in0.0 mm 0.00 in0.0 mm
03:15 PM 63.0°F17.2°C 44.0°F6.7°C 50% 2.2 mph SSW3.5 kmh SSW 9.2 mph14.8 kmh 29.92 in1013.2 mb 0.00 in0.0 mm 0.00 in0.0 mm 0.00 in0.0 mm
03:30 PM 62.4°F16.9°C 45.1°F7.3°C 53% 3.8 mph SW6.1 kmh SW 10.7 mph17.2 kmh 29.92 in1013.2 mb 0.00 in0.0 mm 0.00 in0.0 mm 0.00 in0.0 mm
03:45 PM 62.6°F17.0°C 42.1°F5.6°C 47% 4.5 mph WSW7.2 kmh WSW 7.6 mph12.2 kmh 29.92 in1013.2 mb 0.00 in0.0 mm 0.00 in0.0 mm 0.00 in0.0 mm
04:00 PM 61.2°F16.2°C 42.9°F6.1°C 51% 6.9 mph W11.1 kmh W 10.7 mph17.2 kmh 29.92 in1013.2 mb 0.00 in0.0 mm 0.00 in0.0 mm 0.00 in0.0 mm
04:15 PM 61.9°F16.6°C 43.6°F6.4°C 51% 5.4 mph SSW8.7 kmh SSW 11.4 mph18.3 kmh 29.93 in1013.5 mb 0.00 in0.0 mm 0.00 in0.0 mm 0.00 in0.0 mm
04:30 PM 61.2°F16.2°C 43.4°F6.3°C 52% 5.4 mph S8.7 kmh S 9.8 mph15.8 kmh 29.93 in1013.5 mb 0.00 in0.0 mm 0.00 in0.0 mm 0.00 in0.0 mm
04:45 PM 60.8°F16.0°C 43.6°F6.4°C 53% 7.6 mph S12.2 kmh S 12.1 mph19.5 kmh 29.93 in1013.5 mb 0.00 in0.0 mm 0.00 in0.0 mm 0.00 in0.0 mm
05:00 PM 61.3°F16.3°C 43.6°F6.4°C 52% 4.5 mph S7.2 kmh S 7.6 mph12.2 kmh 29.93 in1013.5 mb 0.00 in0.0 mm 0.00 in0.0 mm 0.00 in0.0 mm
05:15 PM 61.5°F16.4°C 42.2°F5.7°C 49% 4.5 mph S7.2 kmh S 9.2 mph14.8 kmh 29.93 in1013.5 mb 0.00 in0.0 mm 0.00 in0.0 mm 0.00 in0.0 mm
05:30 PM 61.2°F16.2°C 44.4°F6.9°C 54% 7.6 mph SSW12.2 kmh SSW 9.8 mph15.8 kmh 29.94 in1013.9 mb 0.00 in0.0 mm 0.00 in0.0 mm 0.00 in0.0 mm
05:45 PM 59.9°F15.5°C 44.2°F6.8°C 56% 4.5 mph SSW7.2 kmh SSW 9.8 mph15.8 kmh 29.95 in1014.2 mb 0.00 in0.0 mm 0.00 in0.0 mm 0.00 in0.0 mm
06:00 PM 59.4°F15.2°C 44.1°F6.7°C 57% 3.8 mph S6.1 kmh S 10.7 mph17.2 kmh 29.94 in1013.9 mb 0.00 in0.0 mm 0.00 in0.0 mm 0.00 in0.0 mm
06:15 PM 57.0°F13.9°C 42.8°F6.0°C 59% 3.8 mph S6.1 kmh S 8.3 mph13.4 kmh 29.95 in1014.2 mb 0.00 in0.0 mm 0.00 in0.0 mm 0.00 in0.0 mm
06:30 PM 55.6°F13.1°C 41.9°F5.5°C 60% 4.5 mph S7.2 kmh S 8.3 mph13.4 kmh 29.97 in1014.9 mb 0.00 in0.0 mm 0.00 in0.0 mm 0.00 in0.0 mm
06:45 PM 54.9°F12.7°C 41.7°F5.4°C 61% 4.5 mph S7.2 kmh S 8.3 mph13.4 kmh 29.98 in1015.2 mb 0.00 in0.0 mm 0.00 in0.0 mm 0.00 in0.0 mm
07:00 PM 54.5°F12.5°C 41.8°F5.4°C 62% 3.1 mph S5.0 kmh S 6.0 mph9.7 kmh 29.98 in1015.2 mb 0.00 in0.0 mm 0.00 in0.0 mm 0.00 in0.0 mm
07:15 PM 54.1°F12.3°C 42.2°F5.7°C 64% 2.2 mph S3.5 kmh S 6.0 mph9.7 kmh 29.99 in1015.6 mb 0.00 in0.0 mm 0.00 in0.0 mm 0.00 in0.0 mm
07:30 PM 53.8°F12.1°C 42.3°F5.7°C 65% 2.2 mph S3.5 kmh S 6.0 mph9.7 kmh 30.01 in1016.3 mb 0.00 in0.0 mm 0.00 in0.0 mm 0.00 in0.0 mm
07:45 PM 53.6°F12.0°C 42.5°F5.8°C 66% 1.6 mph S2.6 kmh S 5.4 mph8.7 kmh 30.00 in1015.9 mb 0.00 in0.0 mm 0.00 in0.0 mm 0.00 in0.0 mm
08:00 PM 53.4°F11.9°C 43.1°F6.2°C 68% 2.2 mph S3.5 kmh S 4.5 mph7.2 kmh 30.02 in1016.6 mb 0.00 in0.0 mm 0.00 in0.0 mm 0.00 in0.0 mm
08:15 PM 53.4°F11.9°C 43.1°F6.2°C 68% 1.6 mph S2.6 kmh S 5.4 mph8.7 kmh 30.02 in1016.6 mb 0.00 in0.0 mm 0.00 in0.0 mm 0.00 in0.0 mm
08:30 PM 52.9°F11.6°C 43.4°F6.3°C 70% 1.6 mph S2.6 kmh S 3.8 mph6.1 kmh 30.02 in1016.6 mb 0.00 in0.0 mm 0.00 in0.0 mm 0.00 in0.0 mm
08:45 PM 52.9°F11.6°C 43.7°F6.5°C 71% 2.2 mph S3.5 kmh S 3.8 mph6.1 kmh 30.02 in1016.6 mb 0.00 in0.0 mm 0.00 in0.0 mm 0.00 in0.0 mm
09:00 PM 52.9°F11.6°C 44.1°F6.7°C 72% 2.2 mph S3.5 kmh S 4.5 mph7.2 kmh 30.03 in1016.9 mb 0.00 in0.0 mm 0.00 in0.0 mm 0.00 in0.0 mm
09:15 PM 52.3°F11.3°C 44.0°F6.7°C 73% Calm Calm 3.8 mph6.1 kmh 30.02 in1016.6 mb 0.00 in0.0 mm 0.00 in0.0 mm 0.00 in0.0 mm
09:30 PM 51.8°F11.0°C 43.4°F6.3°C 73% Calm Calm 2.2 mph3.5 kmh 30.02 in1016.6 mb 0.00 in0.0 mm 0.00 in0.0 mm 0.00 in0.0 mm
09:45 PM 51.8°F11.0°C 44.1°F6.7°C 75% 0.7 mph SSE1.1 kmh SSE 3.8 mph6.1 kmh 30.02 in1016.6 mb 0.00 in0.0 mm 0.00 in0.0 mm 0.00 in0.0 mm
10:00 PM 50.9°F10.5°C 44.0°F6.7°C 77% 1.6 mph SE2.6 kmh SE 2.2 mph3.5 kmh 30.02 in1016.6 mb 0.00 in0.0 mm 0.00 in0.0 mm 0.00 in0.0 mm
10:15 PM 50.5°F10.3°C 43.9°F6.6°C 78% Calm Calm 1.6 mph2.6 kmh 30.02 in1016.6 mb 0.00 in0.0 mm 0.00 in0.0 mm 0.00 in0.0 mm
10:30 PM 50.2°F10.1°C 43.9°F6.6°C 79% Calm Calm 2.2 mph3.5 kmh 30.03 in1016.9 mb 0.00 in0.0 mm 0.00 in0.0 mm 0.00 in0.0 mm
10:45 PM 50.5°F10.3°C 44.6°F7.0°C 80% 1.6 mph WNW2.6 kmh WNW 2.2 mph3.5 kmh 30.04 in1017.3 mb 0.00 in0.0 mm 0.00 in0.0 mm 0.00 in0.0 mm
11:00 PM 49.6°F9.8°C 44.1°F6.7°C 81% 0.7 mph WNW1.1 kmh WNW 3.1 mph5.0 kmh 30.04 in1017.3 mb 0.00 in0.0 mm 0.00 in0.0 mm 0.00 in0.0 mm
11:15 PM 48.7°F9.3°C 43.2°F6.2°C 81% Calm Calm 1.6 mph2.6 kmh 30.03 in1016.9 mb 0.00 in0.0 mm 0.00 in0.0 mm 0.00 in0.0 mm
11:30 PM 48.4°F9.1°C 43.5°F6.4°C 83% 2.2 mph N3.5 kmh N 3.1 mph5.0 kmh 30.04 in1017.3 mb 0.00 in0.0 mm 0.00 in0.0 mm 0.00 in0.0 mm
11:45 PM 48.2°F9.0°C 43.6°F6.4°C 84% 1.6 mph NW2.6 kmh NW 3.1 mph5.0 kmh 30.05 in1017.6 mb 0.00 in0.0 mm 0.00 in0.0 mm 0.00 in0.0 mm